Cheyenne Regional Jerry Olson Field
KCYS : rendu visible

Aérodrome :











RETROUVEZ-NOUS SUR...

 
LOGIN :

S'inscrire | Disclaimer

   EN    FR    IT 

 









Légende :    VFR   VFR Marginal   IFR   IFR Intensif   IFR Très Intensif
Visi : 
Plafond : 
>= 8 km
>= 3000ft
5 à 8 km
1000 à 3000 ft
1500m à 5 km
500 à 1000 ft
800 à 1500m
200 à 500 ft
< 800m
< 200 ft
Symboles :   Orages  Brouillard  Fortes neiges  Fortes précipitations  Vent > 20 kt







- Altitude de l'aérodrome : 6159 ft
- Code IATA : CYS


KCYS - Cheyenne Regional Jerry Olson Field

DERNIER METAR :
  • 240453Z AUTO 17008KT 9SM SCT005 BKN009 OVC015 04/03 A2995 RMK AO2 RAE00 CIG 007V010 SLP129 P0000 T00390028

METARs EXPIRÉS :
  • 240427Z AUTO 18007KT 9SM FEW006 BKN016 BKN110 03/02 A2995 RMK AO2 RAE00 P0000 T00330022
  • 240411Z AUTO 18008KT 8SM BKN016 OVC050 04/03 A2995 RMK AO2 RAE00 P0000 T00390028
  • 240353Z AUTO 19006KT 7SM -RA FEW004 BKN014 OVC050 04/03 A2996 RMK AO2 RAE14B47 SLP136 P0000 T00390028
  • 240343Z 18007KT 8SM BKN014 BKN050 OVC075 04/03 A2995 RMK AO2 RAE14 P0000 T00390028
  • 240332Z 15009KT 7SM FEW005 BKN015 OVC075 04/02 A2994 RMK AO2 RAE14 P0000 T00390022
  • 240253Z 17006KT 8SM -RA FEW018 OVC050 04/02 A2994 RMK AO2 RAB27 SLPNO P0000 60000 T00390022 51008
  • 240211Z 21005KT 7SM SCT024 OVC070 04/02 A2994 RMK AO2 T00390022

TAF KCYS
Valide du 24 à 01h jusqu'au 25 à 00h UTC


240115Z 2401/2424 16014G22KT 3SM -SHRASN BR SCT007 OVC015
FM240400 17012KT P6SM OVC008
FM240600 22011KT P6SM SCT005 BKN030
FM240800 23010G18KT P6SM SCT005
FM241500 23015G25KT P6SM SCT050
FIR KZDV / Amérique du Nord



MET'MAP, la Météo Aéronautique d'un coup d'oeil ! - Copyright ORBIFLY Décembre 2007 - Disclaimer

ORBIFLY MET'MAP TEAM :

Programmation & Développement : Alexandra Zaïnal
Conception & Développement : Baudouin d'Aumeries
Co-Programmation & Développement : Marc-Olivier Méhu
Soutien technique & logistique : Manuel Goepfert

Contact : metmap@orbifly.com




SOURCES & CREDITS :

   NOAA       Earth
Advisory